createdAt,value
2022-12-27T00:03:33.654Z,6.20
2022-12-27T00:08:46.875Z,6.00
2022-12-27T00:13:55.986Z,5.80
2022-12-27T00:19:04.924Z,5.80
2022-12-27T00:24:12.812Z,5.70
2022-12-27T00:29:21.269Z,5.60
2022-12-27T00:34:28.652Z,5.50
2022-12-27T00:39:35.870Z,5.40
2022-12-27T00:44:43.732Z,5.40
2022-12-27T00:49:49.738Z,5.30
2022-12-27T00:55:00.644Z,5.30
2022-12-27T01:00:10.575Z,5.20
2022-12-27T01:05:20.608Z,5.20
2022-12-27T01:10:33.741Z,5.10
2022-12-27T01:15:45.569Z,5.00
2022-12-27T01:20:55.687Z,4.90
2022-12-27T01:26:03.915Z,4.90
2022-12-27T01:31:14.250Z,4.80
2022-12-27T01:36:23.282Z,4.60
2022-12-27T01:41:54.022Z,4.50
2022-12-27T01:47:15.509Z,4.50
2022-12-27T01:52:22.151Z,4.30
2022-12-27T01:57:30.785Z,4.20
2022-12-27T02:02:50.192Z,4.20
2022-12-27T02:07:59.242Z,4.10
2022-12-27T02:13:06.922Z,4.00
2022-12-27T02:18:15.915Z,4.00
2022-12-27T02:23:58.057Z,3.90
2022-12-27T02:29:14.369Z,3.80
2022-12-27T02:34:41.975Z,3.70
2022-12-27T02:39:40.328Z,3.70
2022-12-27T02:45:11.960Z,3.60
2022-12-27T02:50:42.511Z,3.50
2022-12-27T02:56:37.533Z,3.50
2022-12-27T03:02:11.430Z,3.50
2022-12-27T03:07:55.832Z,3.50
2022-12-27T03:13:36.151Z,3.50
2022-12-27T03:20:04.912Z,3.50
2022-12-27T03:30:54.259Z,3.60
2022-12-27T03:36:54.084Z,3.60
2022-12-27T03:42:31.385Z,3.60
2022-12-27T03:48:05.087Z,3.50
2022-12-27T03:53:43.661Z,3.40
2022-12-27T03:59:03.645Z,3.40
2022-12-27T04:04:32.120Z,3.40
2022-12-27T04:10:02.808Z,3.30
2022-12-27T04:15:29.211Z,3.30
2022-12-27T04:20:53.080Z,3.20
2022-12-27T04:26:16.691Z,3.20
2022-12-27T04:31:40.716Z,3.20
2022-12-27T04:36:46.430Z,3.20
2022-12-27T04:42:10.966Z,3.10
2022-12-27T04:47:40.315Z,3.10
2022-12-27T04:53:03.672Z,3.00
2022-12-27T04:58:12.052Z,2.90
2022-12-27T05:03:25.227Z,2.80
2022-12-27T05:08:54.001Z,2.70
2022-12-27T05:14:06.947Z,2.70
2022-12-27T05:19:16.719Z,2.80
2022-12-27T05:24:41.738Z,2.90
2022-12-27T05:29:48.057Z,3.00
2022-12-27T05:34:55.326Z,3.10
2022-12-27T05:40:02.411Z,3.20
2022-12-27T05:45:09.022Z,3.20
2022-12-27T05:50:17.053Z,3.30
2022-12-27T05:55:24.540Z,3.40
2022-12-27T06:00:33.132Z,3.40
2022-12-27T06:05:44.461Z,3.50
2022-12-27T06:11:15.349Z,3.60
2022-12-27T06:16:28.403Z,3.70
2022-12-27T06:21:35.032Z,3.80
2022-12-27T06:26:47.567Z,3.90
2022-12-27T06:32:12.591Z,4.00
2022-12-27T06:42:58.329Z,4.10
2022-12-27T06:48:04.435Z,4.10
2022-12-27T06:53:21.676Z,4.10
2022-12-27T06:58:54.867Z,4.00
2022-12-27T07:04:23.950Z,4.00
2022-12-27T07:09:38.089Z,4.00
2022-12-27T07:27:04.940Z,4.20
2022-12-27T07:38:05.339Z,4.20
2022-12-27T07:43:11.828Z,4.20
2022-12-27T07:48:19.755Z,4.30
2022-12-27T07:53:25.303Z,4.30
2022-12-27T07:58:30.820Z,4.40
2022-12-27T08:15:22.999Z,4.90
2022-12-27T08:20:55.587Z,5.20
2022-12-27T08:26:25.546Z,5.40
2022-12-27T08:32:00.858Z,5.50
2022-12-27T08:37:29.892Z,5.40
2022-12-27T08:42:54.654Z,5.30
2022-12-27T08:48:28.898Z,5.20
2022-12-27T08:53:58.313Z,5.20
2022-12-27T09:16:19.152Z,5.20
2022-12-27T09:21:34.950Z,5.50
2022-12-27T09:27:02.511Z,5.40
2022-12-27T09:32:37.693Z,5.20
2022-12-27T09:44:04.715Z,4.90
2022-12-27T10:07:09.845Z,4.80
2022-12-27T10:12:54.712Z,4.70
2022-12-27T10:24:01.651Z,4.70
2022-12-27T10:29:32.666Z,4.70
2022-12-27T10:34:47.860Z,4.60
2022-12-27T10:45:42.970Z,4.60
2022-12-27T10:51:30.350Z,4.60
2022-12-27T10:56:48.616Z,4.60
2022-12-27T11:02:18.227Z,4.70
2022-12-27T11:07:35.150Z,4.80
2022-12-27T11:13:29.585Z,4.80
2022-12-27T11:18:59.173Z,4.80
2022-12-27T11:24:17.371Z,4.70
2022-12-27T11:29:30.229Z,4.70
2022-12-27T11:34:48.849Z,4.70
2022-12-27T11:39:58.055Z,4.70
2022-12-27T11:45:23.864Z,4.60
2022-12-27T11:51:45.710Z,4.60
2022-12-27T11:56:58.569Z,4.70
2022-12-27T12:02:28.850Z,4.70
2022-12-27T12:13:46.157Z,4.70
2022-12-27T12:19:01.151Z,4.70
2022-12-27T12:24:31.212Z,4.70
2022-12-27T12:30:05.276Z,4.70
2022-12-27T12:35:30.650Z,4.70
2022-12-27T12:46:48.183Z,4.70
2022-12-27T12:58:18.595Z,4.80
2022-12-27T13:05:30.205Z,4.80
2022-12-27T13:10:04.436Z,4.80
2022-12-27T13:15:21.252Z,4.70
2022-12-27T13:20:45.552Z,4.70
2022-12-27T14:17:31.085Z,4.30
2022-12-27T14:22:54.135Z,4.20
2022-12-27T14:28:42.022Z,4.10
2022-12-27T14:34:19.148Z,4.00
2022-12-27T14:39:48.522Z,4.00
2022-12-27T14:45:17.562Z,4.00
2022-12-27T14:51:01.559Z,4.00
2022-12-27T14:56:16.424Z,4.00
2022-12-27T15:01:27.885Z,4.10
2022-12-27T15:06:42.178Z,4.10
2022-12-27T15:12:06.079Z,4.10
2022-12-27T15:17:43.365Z,4.20
2022-12-27T15:28:52.853Z,4.20
2022-12-27T15:34:24.415Z,4.30
2022-12-27T15:39:39.489Z,4.30
2022-12-27T15:45:05.029Z,4.30
2022-12-27T15:50:19.484Z,4.30
2022-12-27T15:55:43.762Z,4.30
2022-12-27T16:01:25.799Z,4.20
2022-12-27T16:06:38.919Z,4.20
2022-12-27T16:12:07.124Z,4.30
2022-12-27T16:17:35.001Z,4.30
2022-12-27T16:22:46.170Z,4.30
2022-12-27T16:28:11.872Z,4.30
2022-12-27T16:33:30.712Z,4.30
2022-12-27T16:38:37.879Z,4.30
2022-12-27T16:44:04.340Z,4.40
2022-12-27T16:49:30.583Z,4.40
2022-12-27T16:54:57.560Z,4.40
2022-12-27T17:00:08.682Z,4.30
2022-12-27T17:05:25.904Z,4.20
2022-12-27T17:10:36.555Z,4.20
2022-12-27T17:16:03.115Z,4.20
2022-12-27T17:21:11.485Z,4.20
2022-12-27T17:26:46.713Z,4.20
2022-12-27T17:32:11.923Z,4.10
2022-12-27T17:37:21.818Z,4.20
2022-12-27T17:43:20.043Z,4.10
2022-12-27T17:48:33.844Z,4.10
2022-12-27T17:54:09.455Z,4.00
2022-12-27T17:59:26.372Z,4.00
2022-12-27T18:04:38.792Z,4.00
2022-12-27T18:10:01.765Z,3.90
2022-12-27T18:15:17.498Z,3.90
2022-12-27T18:20:31.259Z,4.00
2022-12-27T18:25:48.037Z,4.00
2022-12-27T18:31:20.894Z,4.10
2022-12-27T18:36:34.645Z,4.10
2022-12-27T18:41:44.001Z,4.20
2022-12-27T18:46:55.548Z,4.20
2022-12-27T18:52:02.360Z,4.20
2022-12-27T18:57:34.601Z,4.20
2022-12-27T19:02:41.199Z,4.20
2022-12-27T19:08:12.206Z,4.30
2022-12-27T19:13:23.225Z,4.30
2022-12-27T19:18:34.032Z,4.30
2022-12-27T19:23:42.451Z,4.30
2022-12-27T19:29:02.520Z,4.30
2022-12-27T19:34:16.721Z,4.30
2022-12-27T19:39:32.926Z,4.30
2022-12-27T19:44:39.039Z,4.40
2022-12-27T19:49:45.221Z,4.30
2022-12-27T19:54:53.343Z,4.30
2022-12-27T19:59:58.865Z,4.30
2022-12-27T20:05:04.158Z,4.40
2022-12-27T20:10:11.220Z,4.30
2022-12-27T20:15:18.463Z,4.30
2022-12-27T20:20:24.894Z,4.30
2022-12-27T20:25:31.994Z,4.10
2022-12-27T20:30:39.389Z,4.00
2022-12-27T20:35:45.190Z,4.00
2022-12-27T20:40:51.127Z,4.10
2022-12-27T20:45:57.020Z,4.10
2022-12-27T20:51:11.268Z,4.00
2022-12-27T20:56:20.145Z,4.00
2022-12-27T21:01:27.163Z,3.90
2022-12-27T21:06:32.851Z,3.90
2022-12-27T21:11:38.350Z,4.00
2022-12-27T21:16:43.908Z,4.00
2022-12-27T21:21:49.284Z,3.90
2022-12-27T21:26:56.558Z,3.90
2022-12-27T21:32:02.058Z,3.90
2022-12-27T21:37:11.586Z,3.90
2022-12-27T21:42:14.926Z,3.90
2022-12-27T21:47:20.236Z,3.80
2022-12-27T21:52:25.627Z,3.80
2022-12-27T21:57:30.891Z,3.70
2022-12-27T22:02:36.325Z,3.50
2022-12-27T22:07:42.033Z,3.50
2022-12-27T22:12:47.381Z,3.30
2022-12-27T22:17:53.327Z,3.20
2022-12-27T22:22:58.685Z,3.10
2022-12-27T22:28:04.071Z,3.00
2022-12-27T22:33:09.417Z,2.90
2022-12-27T22:38:15.025Z,2.80
2022-12-27T22:43:20.431Z,2.80
2022-12-27T22:48:25.852Z,2.90
2022-12-27T22:53:31.542Z,3.00
2022-12-27T22:58:37.811Z,3.00
2022-12-27T23:03:44.195Z,3.10
2022-12-27T23:08:50.656Z,3.00
2022-12-27T23:13:58.735Z,2.90
2022-12-27T23:19:04.339Z,2.90
2022-12-27T23:24:11.038Z,2.80
2022-12-27T23:29:16.748Z,2.80
2022-12-27T23:34:27.800Z,2.70
2022-12-27T23:39:30.678Z,2.60
2022-12-27T23:44:36.021Z,2.50
2022-12-27T23:49:41.349Z,2.50
2022-12-27T23:55:06.965Z,2.40
